Time;durP1;ratioP1;P1;durP2;ratioP2;P2;SDS_P1;SDS_P2;PMS_P1;PMS_P2;Temp;Humidity;BMP_temperature;BMP_pressure;BME280_temperature;BME280_humidity;BME280_pressure;Samples;Min_cycle;Max_cycle;Signal;HPM_P1;HPM_P2
2023/08/27 00:01:50;;;;;;;12.25;7.28;;;21.50;99.90;;;;;;4099248;28;20488;-60
2023/08/27 00:03:51;;;;;;;10.23;6.47;;;21.50;99.90;;;;;;4099258;28;20086;-62
2023/08/27 00:05:53;;;;;;;8.52;6.43;;;21.40;99.90;;;;;;4101499;28;20039;-61
2023/08/27 00:07:54;;;;;;;9.23;6.40;;;21.20;99.90;;;;;;4112579;28;20077;-61
2023/08/27 00:09:55;;;;;;;7.95;6.43;;;21.20;99.90;;;;;;4100187;28;20078;-60
2023/08/27 00:11:56;;;;;;;10.90;6.95;;;21.10;99.90;;;;;;4098512;28;20027;-61
2023/08/27 00:13:57;;;;;;;7.53;6.13;;;21.00;99.90;;;;;;4098666;28;20073;-61
2023/08/27 00:15:59;;;;;;;7.28;5.95;;;20.90;99.90;;;;;;4105111;28;20110;-60
2023/08/27 00:18:00;;;;;;;7.65;6.15;;;20.90;99.90;;;;;;4099295;28;20069;-61
2023/08/27 00:20:04;;;;;;;10.77;6.95;;;20.90;99.90;;;;;;4099200;28;20082;-59
2023/08/27 00:22:05;;;;;;;11.50;6.88;;;20.80;99.90;;;;;;4098130;29;20500;-62
2023/08/27 00:24:07;;;;;;;13.65;7.53;;;20.80;99.90;;;;;;4098965;28;20044;-61
2023/08/27 00:26:08;;;;;;;13.00;6.85;;;20.80;99.90;;;;;;4098104;28;20035;-61
2023/08/27 00:28:13;;;;;;;8.30;6.55;;;20.80;99.90;;;;;;4112559;28;20086;-63
2023/08/27 00:30:14;;;;;;;9.48;6.45;;;20.80;99.90;;;;;;4112525;28;20042;-61
2023/08/27 00:32:15;;;;;;;11.02;6.75;;;20.70;99.90;;;;;;4114642;28;20458;-60
2023/08/27 00:34:16;;;;;;;8.63;6.88;;;20.70;99.90;;;;;;4110135;28;20039;-61
2023/08/27 00:36:18;;;;;;;10.75;7.53;;;20.70;99.90;;;;;;4115070;28;20081;-61
2023/08/27 00:38:19;;;;;;;11.20;7.43;;;20.60;99.90;;;;;;4099121;28;20082;-60
2023/08/27 00:40:21;;;;;;;11.73;7.45;;;20.50;99.90;;;;;;4098605;28;20028;-61
2023/08/27 00:42:22;;;;;;;8.90;7.18;;;20.50;99.90;;;;;;4098576;28;20040;-60
2023/08/27 00:44:23;;;;;;;12.77;8.40;;;20.50;99.90;;;;;;4098530;29;20031;-61
2023/08/27 00:46:25;;;;;;;13.38;7.63;;;20.50;99.90;;;;;;4096853;28;20491;-61
2023/08/27 00:48:26;;;;;;;13.85;7.78;;;20.40;99.90;;;;;;4105102;28;20062;-60
2023/08/27 00:50:27;;;;;;;13.00;8.00;;;20.40;99.90;;;;;;4102156;28;20106;-61
2023/08/27 00:52:28;;;;;;;9.32;7.10;;;20.30;99.90;;;;;;4096354;28;20051;-61
2023/08/27 00:54:31;;;;;;;13.38;8.55;;;20.20;99.90;;;;;;4098956;28;20027;-61
2023/08/27 00:56:32;;;;;;;15.63;8.00;;;20.20;99.90;;;;;;4104403;28;20447;-61
2023/08/27 00:58:34;;;;;;;12.73;8.10;;;20.20;99.90;;;;;;4101428;28;20087;-60
2023/08/27 01:00:35;;;;;;;13.45;8.77;;;20.20;99.90;;;;;;4113130;28;20067;-61
2023/08/27 01:02:42;;;;;;;18.05;10.15;;;20.20;99.90;;;;;;4106564;28;20043;-60
2023/08/27 01:04:44;;;;;;;13.35;9.70;;;20.10;99.90;;;;;;4111212;28;20031;-61
2023/08/27 01:06:45;;;;;;;13.85;10.90;;;20.10;99.90;;;;;;4114290;28;20050;-60
2023/08/27 01:09:28;;;;;;;16.52;10.25;;;20.00;99.90;;;;;;4111483;28;20524;-61
2023/08/27 01:11:48;;;;;;;12.20;8.82;;;19.90;99.90;;;;;;4097087;28;20370;-62
2023/08/27 01:13:55;;;;;;;13.13;9.32;;;19.80;99.90;;;;;;4097191;28;20051;-61
2023/08/27 01:16:00;;;;;;;11.00;8.00;;;19.80;99.90;;;;;;4106168;28;20042;-64
2023/08/27 01:18:03;;;;;;;15.55;9.20;;;19.70;99.90;;;;;;4111601;28;20095;-64
2023/08/27 01:20:05;;;;;;;11.63;8.95;;;19.60;99.90;;;;;;4111962;28;20030;-60
2023/08/27 01:22:06;;;;;;;12.80;8.90;;;19.60;99.90;;;;;;4098117;28;20035;-61
2023/08/27 01:24:08;;;;;;;12.43;8.55;;;19.50;99.90;;;;;;4110058;28;20097;-61
2023/08/27 01:26:10;;;;;;;11.98;8.95;;;19.50;99.90;;;;;;4112467;28;20377;-62
2023/08/27 01:28:24;;;;;;;16.33;9.23;;;19.50;99.90;;;;;;4112250;28;20501;-60
2023/08/27 01:30:42;;;;;;;17.63;8.75;;;19.50;99.90;;;;;;4102498;28;20039;-60
2023/08/27 01:33:03;;;;;;;10.95;9.07;;;19.50;99.90;;;;;;4103091;28;20031;-60
2023/08/27 01:35:04;;;;;;;;;;;19.50;99.90;;;;;;4098442;28;20078;-61
2023/08/27 01:37:06;;;;;;;11.15;8.95;;;19.50;99.90;;;;;;4113090;28;19974;-58
2023/08/27 01:39:12;;;;;;;16.17;8.98;;;19.50;99.90;;;;;;4108447;28;20028;-61
2023/08/27 01:41:13;;;;;;;14.52;8.15;;;19.40;99.90;;;;;;4111264;28;20468;-58
2023/08/27 01:43:14;;;;;;;14.10;8.05;;;19.40;99.90;;;;;;4112814;28;20035;-60
2023/08/27 01:45:17;;;;;;;11.82;7.72;;;19.40;99.90;;;;;;4113812;28;20027;-60
2023/08/27 01:47:18;;;;;;;12.13;8.65;;;19.40;99.90;;;;;;4105336;28;20094;-60
2023/08/27 01:49:19;;;;;;;11.98;8.30;;;19.40;99.90;;;;;;4105780;28;20085;-61
2023/08/27 01:51:20;;;;;;;12.98;8.85;;;19.40;99.90;;;;;;4110088;28;20049;-61
2023/08/27 01:53:22;;;;;;;14.98;8.25;;;19.30;99.90;;;;;;4096905;28;20106;-60
2023/08/27 01:55:23;;;;;;;14.68;8.88;;;19.40;99.90;;;;;;4097833;28;20046;-61
2023/08/27 01:57:24;;;;;;;12.30;9.00;;;19.40;99.90;;;;;;4101514;28;20027;-61
2023/08/27 01:59:25;;;;;;;13.73;8.38;;;19.40;99.90;;;;;;4097997;28;20043;-60
2023/08/27 02:01:26;;;;;;;12.05;8.32;;;19.40;99.90;;;;;;4097132;28;20043;-60
2023/08/27 02:03:27;;;;;;;16.08;8.15;;;19.40;99.90;;;;;;4110870;28;20031;-60
2023/08/27 02:05:28;;;;;;;12.95;8.63;;;19.40;99.90;;;;;;4102749;28;20467;-63
2023/08/27 02:07:30;;;;;;;9.57;7.72;;;19.40;99.90;;;;;;4104924;28;20046;-61
2023/08/27 02:09:31;;;;;;;13.02;8.23;;;19.40;99.90;;;;;;4110277;28;20432;-61
2023/08/27 02:11:33;;;;;;;13.60;8.82;;;19.40;99.90;;;;;;4106920;28;20090;-61
2023/08/27 02:13:34;;;;;;;16.92;9.50;;;19.50;99.90;;;;;;4095801;28;20043;-62
2023/08/27 02:15:35;;;;;;;10.95;8.63;;;19.60;99.90;;;;;;4097430;28;20451;-61
2023/08/27 02:17:37;;;;;;;17.95;8.98;;;19.60;99.90;;;;;;4104241;28;20078;-61
2023/08/27 02:19:39;;;;;;;12.52;8.32;;;19.60;99.90;;;;;;4113056;28;20077;-60
2023/08/27 02:21:40;;;;;;;10.40;7.97;;;19.60;99.90;;;;;;4098454;28;20097;-59
2023/08/27 02:23:41;;;;;;;9.80;8.35;;;19.70;99.90;;;;;;4111069;28;20089;-61
2023/08/27 02:25:42;;;;;;;17.33;8.43;;;19.70;99.90;;;;;;4097143;28;20093;-62
2023/08/27 02:27:43;;;;;;;12.85;8.55;;;19.80;99.90;;;;;;4103281;28;20038;-65
2023/08/27 02:29:45;;;;;;;16.52;9.75;;;19.80;99.90;;;;;;4111975;28;20059;-69
2023/08/27 02:31:46;;;;;;;15.07;9.32;;;19.80;99.90;;;;;;4105703;28;20039;-63
2023/08/27 02:33:47;;;;;;;13.00;8.48;;;19.90;99.90;;;;;;4097210;29;20546;-62
2023/08/27 02:35:48;;;;;;;11.23;8.02;;;19.90;99.90;;;;;;4095426;28;20094;-65
2023/08/27 02:37:49;;;;;;;13.40;8.80;;;19.80;99.90;;;;;;4097132;29;20436;-64
2023/08/27 02:39:51;;;;;;;13.73;9.05;;;19.90;99.90;;;;;;4095939;28;20091;-64
2023/08/27 02:41:52;;;;;;;14.95;9.75;;;19.80;99.90;;;;;;4099191;28;20046;-65
2023/08/27 02:43:54;;;;;;;12.07;9.70;;;19.80;99.90;;;;;;4095716;28;20495;-63
2023/08/27 02:45:55;;;;;;;15.32;8.70;;;19.90;99.90;;;;;;4107356;28;20054;-69
2023/08/27 02:47:56;;;;;;;14.05;8.57;;;19.90;99.90;;;;;;4105768;28;20083;-67
2023/08/27 02:49:57;;;;;;;18.92;8.90;;;19.90;99.90;;;;;;4105790;28;20089;-68
2023/08/27 02:51:58;;;;;;;13.50;8.60;;;19.80;99.90;;;;;;4102233;28;20043;-61
2023/08/27 02:53:59;;;;;;;13.52;7.43;;;19.80;99.90;;;;;;4085671;28;20039;-62
2023/08/27 02:56:00;;;;;;;12.40;7.97;;;19.70;99.90;;;;;;4110001;28;20085;-60
2023/08/27 02:58:02;;;;;;;12.77;7.80;;;19.80;99.90;;;;;;4102096;28;20027;-61
2023/08/27 03:00:04;;;;;;;22.58;8.77;;;19.70;99.90;;;;;;4111901;28;20542;-64
2023/08/27 03:02:06;;;;;;;9.40;7.57;;;19.70;99.90;;;;;;4101983;28;20031;-65
2023/08/27 03:04:07;;;;;;;16.38;8.40;;;19.60;99.90;;;;;;4103948;28;20035;-64
2023/08/27 03:06:08;;;;;;;11.50;7.68;;;19.60;99.90;;;;;;4110898;28;20042;-63
2023/08/27 03:08:09;;;;;;;13.02;7.68;;;19.60;99.90;;;;;;4111925;28;20563;-60
2023/08/27 03:10:10;;;;;;;12.93;7.25;;;19.60;99.90;;;;;;4096494;28;20098;-64
2023/08/27 03:12:11;;;;;;;10.00;6.90;;;19.60;99.90;;;;;;4097696;28;20090;-63
2023/08/27 03:14:12;;;;;;;11.43;7.30;;;19.60;99.90;;;;;;4094672;28;20047;-63
2023/08/27 03:16:14;;;;;;;21.33;7.38;;;19.60;99.90;;;;;;4095934;29;20082;-66
2023/08/27 03:18:15;;;;;;;11.40;6.88;;;19.60;99.90;;;;;;4109076;28;20105;-67
2023/08/27 03:20:16;;;;;;;13.02;7.95;;;19.60;99.90;;;;;;4099326;28;20027;-67
2023/08/27 03:22:17;;;;;;;10.90;7.00;;;19.50;99.90;;;;;;4096864;28;20093;-67
2023/08/27 03:24:18;;;;;;;11.82;7.28;;;19.50;99.90;;;;;;4096342;29;20046;-66
2023/08/27 03:26:20;;;;;;;10.25;6.95;;;19.40;99.90;;;;;;4096243;28;20039;-63
2023/08/27 03:28:21;;;;;;;10.65;7.15;;;19.30;99.90;;;;;;4097769;28;20164;-62
2023/08/27 03:30:22;;;;;;;9.85;7.80;;;19.20;99.90;;;;;;4097401;28;20085;-62
2023/08/27 03:32:23;;;;;;;10.82;6.82;;;19.10;99.90;;;;;;4098209;28;20450;-65
2023/08/27 03:34:24;;;;;;;10.30;7.38;;;19.00;99.90;;;;;;4112515;28;20035;-65
2023/08/27 03:36:25;;;;;;;15.98;7.75;;;18.90;99.90;;;;;;4110603;28;20034;-61
2023/08/27 03:38:26;;;;;;;9.43;7.07;;;18.90;99.90;;;;;;4112551;28;20027;-62
2023/08/27 03:40:29;;;;;;;10.32;7.57;;;18.90;99.90;;;;;;4109702;28;20451;-66
2023/08/27 03:42:30;;;;;;;8.55;7.00;;;18.80;99.90;;;;;;4112469;28;20070;-63
2023/08/27 03:44:33;;;;;;;9.93;6.85;;;18.90;99.90;;;;;;4110206;28;20046;-68
2023/08/27 03:46:34;;;;;;;12.57;6.65;;;18.90;99.90;;;;;;4110425;28;20051;-61
2023/08/27 03:48:35;;;;;;;9.90;6.35;;;18.90;99.90;;;;;;4102355;28;20106;-62
2023/08/27 03:50:37;;;;;;;10.20;7.25;;;18.90;99.90;;;;;;4103429;28;20910;-60
2023/08/27 03:52:38;;;;;;;12.98;6.88;;;18.80;99.90;;;;;;4110780;28;20031;-60
2023/08/27 03:54:39;;;;;;;9.95;7.05;;;18.80;99.90;;;;;;4110068;28;20746;-61
2023/08/27 03:56:40;;;;;;;9.80;7.90;;;18.90;99.90;;;;;;4112260;28;20019;-58
2023/08/27 03:58:41;;;;;;;12.25;9.65;;;19.00;99.90;;;;;;4099950;28;20464;-63
2023/08/27 04:00:43;;;;;;;12.07;9.25;;;19.10;99.90;;;;;;4098017;28;20047;-62
2023/08/27 04:02:44;;;;;;;10.63;7.93;;;19.20;99.90;;;;;;4098150;28;20031;-60
2023/08/27 04:04:45;;;;;;;21.10;9.35;;;19.30;99.90;;;;;;4098863;28;20031;-61
2023/08/27 04:06:47;;;;;;;15.07;7.85;;;19.50;99.90;;;;;;4109157;28;20039;-61
2023/08/27 04:08:49;;;;;;;11.85;8.10;;;19.60;99.90;;;;;;4112419;28;20042;-61
2023/08/27 04:10:52;;;;;;;14.13;9.18;;;19.80;99.90;;;;;;4109351;28;20030;-61
2023/08/27 04:12:54;;;;;;;13.38;8.00;;;20.00;99.90;;;;;;4097048;28;20039;-60
2023/08/27 04:14:55;;;;;;;13.85;9.07;;;20.20;99.90;;;;;;4106621;28;20039;-61
2023/08/27 04:16:57;;;;;;;15.77;9.20;;;20.30;99.90;;;;;;4098233;28;20471;-63
2023/08/27 04:18:58;;;;;;;12.32;8.50;;;20.50;99.90;;;;;;4096974;28;20094;-64
2023/08/27 04:21:00;;;;;;;15.85;8.80;;;20.60;99.90;;;;;;4096140;28;20102;-61
2023/08/27 04:23:01;;;;;;;14.20;8.63;;;20.80;99.90;;;;;;4094639;28;20043;-60
2023/08/27 04:25:02;;;;;;;8.90;7.55;;;20.90;99.90;;;;;;4106609;28;20093;-61
2023/08/27 04:27:04;;;;;;;14.32;7.90;;;21.10;99.90;;;;;;4097671;28;20480;-61
2023/08/27 04:29:05;;;;;;;11.63;8.32;;;21.40;99.90;;;;;;4111655;28;20047;-62
2023/08/27 04:31:06;;;;;;;14.55;8.50;;;21.90;99.90;;;;;;4101905;28;20023;-61
2023/08/27 04:33:09;;;;;;;13.98;8.20;;;22.40;99.90;;;;;;4110589;28;20144;-62
2023/08/27 04:35:11;;;;;;;13.27;8.10;;;22.80;99.90;;;;;;4110432;28;20030;-62
2023/08/27 04:37:12;;;;;;;11.82;8.35;;;23.30;99.90;;;;;;4100285;28;20392;-61
2023/08/27 04:39:13;;;;;;;11.15;8.02;;;23.60;99.90;;;;;;4098283;29;20089;-65
2023/08/27 04:41:14;;;;;;;11.88;7.90;;;23.90;99.90;;;;;;4097502;29;20035;-60
2023/08/27 04:43:15;;;;;;;12.00;7.95;;;24.30;99.90;;;;;;4097289;28;20039;-60
2023/08/27 04:45:18;;;;;;;14.95;8.48;;;24.60;99.90;;;;;;4098024;28;20125;-60
2023/08/27 04:47:19;;;;;;;12.27;7.68;;;24.70;99.90;;;;;;4082964;29;20393;-61
2023/08/27 04:49:20;;;;;;;13.15;7.07;;;24.80;99.90;;;;;;4098431;28;20120;-61
2023/08/27 04:51:21;;;;;;;10.35;6.60;;;24.80;99.90;;;;;;4098528;29;20027;-62
2023/08/27 04:53:22;;;;;;;14.60;7.32;;;24.70;99.90;;;;;;4097253;28;20102;-64
2023/08/27 04:55:23;;;;;;;15.80;7.20;;;24.70;99.90;;;;;;4098191;29;20035;-59
2023/08/27 04:57:25;;;;;;;16.75;7.00;;;24.60;99.90;;;;;;4097946;28;20543;-60
2023/08/27 04:59:26;;;;;;;17.13;8.15;;;24.50;99.90;;;;;;4097533;28;20118;-66
2023/08/27 05:01:27;;;;;;;15.20;7.72;;;24.50;99.90;;;;;;4102172;28;20043;-61
2023/08/27 05:03:28;;;;;;;12.93;6.75;;;24.50;99.90;;;;;;4096927;28;20484;-60
2023/08/27 05:05:29;;;;;;;12.65;7.07;;;24.60;99.90;;;;;;4110925;28;20027;-60
2023/08/27 05:07:31;;;;;;;18.30;7.28;;;24.80;99.90;;;;;;4112791;28;20105;-59
2023/08/27 05:09:32;;;;;;;13.60;7.40;;;25.00;99.90;;;;;;4114147;28;20089;-59
2023/08/27 05:11:33;;;;;;;14.50;7.80;;;25.20;99.90;;;;;;4112348;28;20034;-60
2023/08/27 05:13:34;;;;;;;16.38;8.23;;;25.40;99.90;;;;;;4113380;28;20101;-59
2023/08/27 05:15:35;;;;;;;16.13;7.55;;;25.70;99.90;;;;;;4113154;28;20027;-62
2023/08/27 05:17:37;;;;;;;22.10;7.97;;;25.80;99.90;;;;;;4104439;28;20031;-63
2023/08/27 05:19:38;;;;;;;17.90;7.95;;;26.10;99.90;;;;;;4096068;28;20092;-60
2023/08/27 05:21:39;;;;;;;22.83;8.85;;;26.30;99.90;;;;;;4104561;28;20043;-61
2023/08/27 05:23:40;;;;;;;11.95;8.38;;;26.40;99.90;;;;;;4110859;28;20479;-64
2023/08/27 05:25:41;;;;;;;16.27;9.30;;;26.20;99.90;;;;;;4113858;28;20038;-61
2023/08/27 05:27:45;;;;;;;11.93;8.75;;;26.00;99.90;;;;;;4113020;28;20053;-65
2023/08/27 05:29:46;;;;;;;16.02;9.45;;;26.00;99.90;;;;;;4112996;28;20050;-61
2023/08/27 05:31:48;;;;;;;13.27;8.55;;;26.10;99.90;;;;;;4111934;28;20440;-67
2023/08/27 05:33:49;;;;;;;17.77;9.70;;;26.10;99.90;;;;;;4112913;28;20559;-60
2023/08/27 05:35:50;;;;;;;13.73;9.18;;;26.20;99.90;;;;;;4112718;28;20043;-66
2023/08/27 05:37:51;;;;;;;14.82;10.10;;;26.10;99.90;;;;;;4110529;28;20632;-61
2023/08/27 05:39:52;;;;;;;22.90;11.85;;;25.80;99.90;;;;;;4103915;28;20031;-64
2023/08/27 05:41:53;;;;;;;13.60;9.85;;;25.50;99.90;;;;;;4097155;28;20105;-63
2023/08/27 05:43:54;;;;;;;14.40;10.20;;;25.40;99.90;;;;;;4100279;28;20117;-59
2023/08/27 05:45:55;;;;;;;22.25;10.38;;;25.40;99.90;;;;;;4109916;28;20054;-63
2023/08/27 05:47:57;;;;;;;17.73;10.38;;;25.80;99.90;;;;;;4112719;28;20094;-67
2023/08/27 05:49:58;;;;;;;18.70;12.25;;;26.00;99.90;;;;;;4109439;28;20452;-68
2023/08/27 05:51:59;;;;;;;14.48;10.23;;;25.90;99.90;;;;;;4097107;28;20031;-66
2023/08/27 05:54:00;;;;;;;15.23;9.60;;;26.30;99.90;;;;;;4095840;28;20098;-66
2023/08/27 05:56:01;;;;;;;16.90;9.70;;;26.40;99.90;;;;;;4096864;29;20039;-70
2023/08/27 05:58:06;;;;;;;15.18;10.13;;;26.40;99.90;;;;;;4105209;28;20073;-63
2023/08/27 06:00:09;;;;;;;16.85;9.90;;;26.40;99.90;;;;;;4112286;28;20097;-64
2023/08/27 06:02:13;;;;;;;20.75;10.18;;;26.80;99.90;;;;;;4107213;28;20356;-63
2023/08/27 06:04:14;;;;;;;19.05;9.80;;;27.60;99.90;;;;;;4105628;28;20023;-64
2023/08/27 06:06:15;;;;;;;16.42;8.57;;;27.60;99.90;;;;;;4097370;28;20050;-64
2023/08/27 06:08:16;;;;;;;12.70;8.57;;;28.00;99.90;;;;;;4103859;28;20125;-64
2023/08/27 06:10:18;;;;;;;13.95;9.10;;;28.20;99.90;;;;;;4105040;28;20516;-69
2023/08/27 06:12:19;;;;;;;14.52;8.35;;;28.30;99.90;;;;;;4103338;28;20381;-67
2023/08/27 06:14:20;;;;;;;13.75;8.88;;;28.20;99.90;;;;;;4099025;28;20105;-63
2023/08/27 06:16:21;;;;;;;10.95;7.80;;;28.00;99.90;;;;;;4111902;28;20038;-67
2023/08/27 06:18:22;;;;;;;8.73;7.30;;;27.90;99.90;;;;;;4112580;28;20046;-69
2023/08/27 06:20:23;;;;;;;12.80;8.68;;;28.20;99.90;;;;;;4112460;28;20478;-66
2023/08/27 06:22:25;;;;;;;10.93;7.80;;;28.70;99.90;;;;;;4106354;28;20042;-63
2023/08/27 06:24:26;;;;;;;11.35;7.18;;;28.90;99.90;;;;;;4104920;28;20043;-67
2023/08/27 06:26:27;;;;;;;14.82;8.18;;;29.80;99.90;;;;;;4108090;28;20031;-67
2023/08/27 06:28:29;;;;;;;11.63;7.70;;;29.50;99.90;;;;;;4095798;28;20078;-68
2023/08/27 06:30:31;;;;;;;12.60;7.47;;;29.70;99.90;;;;;;4098106;28;20047;-68
2023/08/27 06:32:32;;;;;;;14.00;8.73;;;29.50;99.90;;;;;;4101854;28;20563;-65
2023/08/27 06:34:33;;;;;;;9.50;7.28;;;29.40;99.90;;;;;;4097757;28;20038;-65
2023/08/27 06:36:34;;;;;;;10.60;7.32;;;29.10;99.90;;;;;;4096565;28;20043;-69
2023/08/27 06:38:35;;;;;;;10.70;8.32;;;29.20;99.90;;;;;;4095645;28;20452;-69
2023/08/27 06:40:36;;;;;;;13.40;9.30;;;29.60;99.90;;;;;;4099943;28;20082;-67
2023/08/27 06:42:37;;;;;;;9.50;7.05;;;29.30;99.90;;;;;;4095671;28;20094;-60
2023/08/27 06:44:39;;;;;;;8.07;6.15;;;29.10;99.90;;;;;;4097370;28;20090;-67
2023/08/27 06:46:40;;;;;;;9.77;6.00;;;29.20;99.90;;;;;;4095822;28;20043;-66
2023/08/27 06:48:41;;;;;;;7.15;6.45;;;29.80;99.90;;;;;;4096910;28;20137;-65
2023/08/27 06:50:42;;;;;;;8.43;6.38;;;30.20;99.90;;;;;;4095532;28;20054;-59
2023/08/27 06:52:44;;;;;;;9.07;6.00;;;29.70;99.90;;;;;;4095562;29;20039;-63
2023/08/27 06:54:45;;;;;;;12.38;6.50;;;29.50;99.90;;;;;;4099964;28;20058;-63
2023/08/27 06:56:46;;;;;;;9.75;6.45;;;29.00;99.90;;;;;;4112891;28;20038;-68
2023/08/27 06:58:48;;;;;;;9.07;6.53;;;28.80;99.90;;;;;;4111335;28;20404;-65
2023/08/27 07:00:49;;;;;;;8.10;5.78;;;28.80;99.90;;;;;;4108185;28;20102;-65
2023/08/27 07:02:50;;;;;;;10.35;6.35;;;28.90;99.90;;;;;;4107942;28;20065;-63
2023/08/27 07:04:52;;;;;;;10.30;6.07;;;29.40;99.90;;;;;;4111868;28;20469;-63
2023/08/27 07:06:53;;;;;;;12.68;5.88;;;29.00;99.90;;;;;;4100173;28;20578;-62
2023/08/27 07:08:54;;;;;;;9.48;6.05;;;29.00;99.90;;;;;;4095171;28;20036;-65
2023/08/27 07:10:56;;;;;;;11.40;6.15;;;28.90;99.90;;;;;;4097360;28;20039;-64
2023/08/27 07:12:57;;;;;;;8.95;6.18;;;29.10;99.90;;;;;;4094907;28;20476;-62
2023/08/27 07:14:59;;;;;;;10.45;6.80;;;29.10;99.90;;;;;;4106379;28;20038;-70
2023/08/27 07:17:00;;;;;;;9.63;5.40;;;29.10;99.90;;;;;;4111346;28;20093;-67
2023/08/27 07:19:01;;;;;;;10.15;6.47;;;28.80;99.90;;;;;;4111688;28;20031;-67
2023/08/27 07:21:02;;;;;;;7.13;6.07;;;28.60;99.90;;;;;;4109592;28;20077;-68
2023/08/27 07:23:04;;;;;;;8.63;5.90;;;28.70;99.90;;;;;;4112181;28;20038;-72
2023/08/27 07:25:06;;;;;;;9.68;6.30;;;29.00;99.90;;;;;;4110731;28;20105;-64
2023/08/27 07:27:08;;;;;;;7.93;6.13;;;29.10;99.90;;;;;;4111643;28;20086;-60
2023/08/27 07:29:09;;;;;;;6.97;5.78;;;28.70;99.90;;;;;;4110806;28;20023;-66
2023/08/27 07:31:10;;;;;;;10.13;7.03;;;28.40;99.90;;;;;;4110514;28;20181;-69
2023/08/27 07:33:12;;;;;;;8.80;6.28;;;28.40;99.90;;;;;;4111131;28;20031;-63
2023/08/27 07:35:14;;;;;;;7.95;6.00;;;28.30;99.90;;;;;;4111739;28;20039;-66
2023/08/27 07:37:15;;;;;;;8.90;6.47;;;28.30;99.90;;;;;;4111509;28;20105;-64
2023/08/27 07:39:16;;;;;;;11.82;6.40;;;28.20;99.90;;;;;;4111152;28;20381;-63
2023/08/27 07:41:17;;;;;;;8.13;5.47;;;28.20;99.90;;;;;;4103800;28;20031;-66
2023/08/27 07:43:19;;;;;;;10.32;5.65;;;28.20;99.90;;;;;;4105424;28;20036;-66
2023/08/27 07:45:20;;;;;;;6.13;5.50;;;28.10;99.90;;;;;;4112235;28;20031;-63
2023/08/27 07:47:21;;;;;;;8.27;4.95;;;28.20;99.90;;;;;;4109967;28;20058;-65
2023/08/27 07:49:23;;;;;;;8.38;4.53;;;28.30;99.90;;;;;;4110750;28;20047;-60
2023/08/27 07:51:24;;;;;;;6.53;5.15;;;28.20;99.90;;;;;;4109370;28;20101;-67
2023/08/27 07:53:25;;;;;;;11.07;5.45;;;28.20;99.90;;;;;;4105492;28;20809;-65
2023/08/27 07:55:31;;;;;;;7.18;4.65;;;28.50;99.90;;;;;;4096888;28;20082;-69
2023/08/27 07:57:32;;;;;;;9.63;5.07;;;28.70;99.90;;;;;;4112000;28;20054;-61
2023/08/27 07:59:33;;;;;;;9.02;4.90;;;28.70;99.90;;;;;;4110800;28;20117;-65
2023/08/27 08:01:34;;;;;;;7.03;5.20;;;28.80;99.90;;;;;;4112087;28;20047;-68
2023/08/27 08:03:35;;;;;;;7.82;4.35;;;28.90;99.90;;;;;;4112962;28;20078;-67
2023/08/27 08:05:36;;;;;;;5.63;4.35;;;29.10;99.90;;;;;;4114214;28;20054;-68
2023/08/27 08:07:38;;;;;;;6.00;4.68;;;29.30;99.90;;;;;;4114487;28;20027;-67
2023/08/27 08:09:39;;;;;;;5.55;4.05;;;29.30;99.90;;;;;;4114159;28;20097;-68
2023/08/27 08:11:40;;;;;;;8.73;4.80;;;29.20;99.90;;;;;;4114756;28;20035;-61
2023/08/27 08:13:43;;;;;;;5.18;4.38;;;29.10;99.90;;;;;;4112823;28;20107;-67
2023/08/27 08:15:47;;;;;;;6.30;4.45;;;29.10;99.90;;;;;;4115322;28;20027;-61
2023/08/27 08:17:48;;;;;;;7.80;5.07;;;29.10;99.90;;;;;;4113617;28;20042;-68
2023/08/27 08:19:51;;;;;;;7.03;4.32;;;29.20;99.90;;;;;;4113968;28;20051;-66
2023/08/27 08:21:53;;;;;;;7.80;4.78;;;29.20;99.90;;;;;;4113025;28;20066;-67
2023/08/27 08:23:54;;;;;;;6.07;4.47;;;29.30;99.90;;;;;;4114578;28;20026;-68
2023/08/27 08:25:58;;;;;;;7.07;3.95;;;29.30;99.90;;;;;;4113359;28;20086;-60
2023/08/27 08:27:59;;;;;;;7.32;3.83;;;29.50;99.90;;;;;;4114194;28;20500;-62
2023/08/27 08:30:03;;;;;;;4.93;4.40;;;29.60;99.90;;;;;;4113331;28;20047;-65
2023/08/27 08:32:04;;;;;;;7.55;4.07;;;29.60;99.90;;;;;;4114948;28;20546;-67
2023/08/27 08:34:05;;;;;;;5.28;3.58;;;29.70;99.90;;;;;;4113606;28;20034;-64
2023/08/27 08:36:06;;;;;;;10.30;4.05;;;29.80;99.90;;;;;;4114010;28;20142;-68
2023/08/27 08:38:08;;;;;;;5.22;4.03;;;29.90;99.90;;;;;;4113274;28;20424;-63
2023/08/27 08:40:11;;;;;;;7.32;4.03;;;30.20;99.90;;;;;;4113688;28;20038;-62
2023/08/27 08:42:36;;;;;;;7.50;4.43;;;30.20;99.90;;;;;;4113194;28;20118;-61
2023/08/27 08:44:54;;;;;;;7.22;4.55;;;30.30;99.90;;;;;;4114422;28;20086;-67
2023/08/27 08:46:55;;;;;;;7.82;4.72;;;30.30;99.90;;;;;;4112939;28;20062;-65
2023/08/27 08:48:58;;;;;;;6.50;4.47;;;30.30;99.90;;;;;;4113476;28;20464;-67
2023/08/27 08:51:02;;;;;;;5.63;4.28;;;30.50;99.90;;;;;;4112046;28;20054;-65
2023/08/27 08:53:14;;;;;;;5.85;3.95;;;30.60;99.90;;;;;;4114031;28;20494;-65
2023/08/27 08:55:16;;;;;;;5.72;3.80;;;30.50;99.90;;;;;;4113188;28;20077;-66
2023/08/27 08:57:19;;;;;;;5.05;3.50;;;30.70;99.90;;;;;;4113055;28;20093;-61
2023/08/27 08:59:22;;;;;;;4.63;3.40;;;30.80;99.90;;;;;;4113125;28;20186;-67
2023/08/27 09:01:24;;;;;;;5.22;3.33;;;30.90;99.60;;;;;;4113358;28;20442;-67
2023/08/27 09:03:27;;;;;;;4.60;3.42;;;31.00;99.40;;;;;;4114015;28;20031;-67
2023/08/27 09:05:31;;;;;;;6.30;3.85;;;30.90;99.30;;;;;;4112875;28;20031;-65
2023/08/27 09:07:37;;;;;;;4.38;3.83;;;31.10;99.20;;;;;;4113304;28;20105;-61
2023/08/27 09:09:40;;;;;;;4.43;3.40;;;31.30;98.90;;;;;;4112148;28;20945;-66
2023/08/27 09:11:41;;;;;;;5.82;3.20;;;31.30;98.80;;;;;;4112249;28;20494;-67
2023/08/27 09:13:43;;;;;;;4.32;3.30;;;31.40;98.20;;;;;;4111527;28;20030;-61
2023/08/27 09:15:44;;;;;;;3.30;3.00;;;31.50;97.80;;;;;;4113985;28;20357;-67
2023/08/27 09:17:46;;;;;;;4.22;3.63;;;31.70;97.40;;;;;;4112586;28;20046;-68
2023/08/27 09:19:47;;;;;;;6.72;2.97;;;31.80;97.20;;;;;;4113369;28;20105;-60
2023/08/27 09:21:49;;;;;;;5.57;3.38;;;31.90;97.20;;;;;;4113048;28;20101;-68
2023/08/27 09:23:52;;;;;;;4.85;3.03;;;32.00;97.00;;;;;;4114026;28;20111;-64
2023/08/27 09:25:56;;;;;;;5.75;3.40;;;31.90;97.00;;;;;;4112145;28;20435;-59
2023/08/27 09:27:57;;;;;;;4.65;3.13;;;31.80;97.00;;;;;;4113695;28;20027;-66
2023/08/27 09:30:00;;;;;;;8.20;3.53;;;31.90;96.70;;;;;;4112871;28;20038;-68
2023/08/27 09:32:03;;;;;;;4.95;3.05;;;31.90;96.60;;;;;;4112665;28;20090;-68
2023/08/27 09:34:04;;;;;;;6.30;3.72;;;32.00;96.30;;;;;;4113195;28;20027;-60
2023/08/27 09:36:06;;;;;;;4.30;3.38;;;32.20;96.20;;;;;;4112504;28;20047;-67
2023/08/27 09:38:12;;;;;;;3.15;2.85;;;32.40;95.60;;;;;;4113071;28;20051;-60
2023/08/27 09:40:16;;;;;;;3.92;2.50;;;32.60;94.80;;;;;;4112558;28;20090;-62
2023/08/27 09:42:17;;;;;;;4.85;2.60;;;32.70;93.50;;;;;;4112881;28;20042;-67
2023/08/27 09:44:18;;;;;;;3.65;2.53;;;32.70;93.90;;;;;;4112399;28;20027;-60
2023/08/27 09:46:20;;;;;;;5.55;2.97;;;32.70;93.30;;;;;;4113515;28;20227;-67
2023/08/27 09:48:26;;;;;;;4.55;2.67;;;32.70;93.00;;;;;;4111657;28;20101;-66
2023/08/27 09:50:31;;;;;;;9.80;3.20;;;32.70;92.80;;;;;;4113188;28;20042;-68
2023/08/27 09:52:33;;;;;;;5.28;3.08;;;32.80;92.50;;;;;;4111482;28;20085;-61
2023/08/27 09:54:34;;;;;;;5.00;3.08;;;32.90;92.30;;;;;;4113287;28;20117;-61
2023/08/27 09:56:36;;;;;;;5.88;2.92;;;32.80;92.40;;;;;;4112075;28;20038;-67
2023/08/27 09:58:38;;;;;;;3.80;2.90;;;32.80;92.20;;;;;;4112504;28;20097;-67
2023/08/27 10:00:42;;;;;;;6.95;3.15;;;32.70;92.10;;;;;;4110027;28;20043;-61
2023/08/27 10:02:44;;;;;;;5.10;3.63;;;32.80;91.90;;;;;;4112450;28;20030;-60
2023/08/27 10:04:54;;;;;;;5.82;3.00;;;32.90;91.90;;;;;;4111431;28;20101;-63
2023/08/27 10:06:55;;;;;;;5.45;3.30;;;33.20;91.60;;;;;;4113047;28;20086;-68
2023/08/27 10:08:57;;;;;;;6.22;4.07;;;33.30;91.50;;;;;;4111295;28;20023;-67
2023/08/27 10:11:11;;;;;;;8.05;3.28;;;33.30;91.40;;;;;;4112613;28;20042;-62
2023/08/27 10:13:15;;;;;;;5.35;2.90;;;33.30;90.20;;;;;;4111284;28;20047;-66
2023/08/27 10:15:16;;;;;;;5.32;3.45;;;33.40;90.70;;;;;;4112519;28;20187;-68
2023/08/27 10:17:17;;;;;;;4.05;3.28;;;33.30;90.60;;;;;;4112524;28;20443;-68
2023/08/27 10:19:19;;;;;;;3.65;2.60;;;33.30;90.50;;;;;;4112264;28;20027;-66
2023/08/27 10:21:20;;;;;;;5.93;2.95;;;33.50;90.40;;;;;;4112388;28;20031;-66
2023/08/27 10:23:23;;;;;;;6.15;3.38;;;33.60;90.20;;;;;;4111427;28;20443;-68
2023/08/27 10:25:26;;;;;;;5.40;3.45;;;33.80;90.20;;;;;;4111859;28;20117;-67
2023/08/27 10:27:29;;;;;;;5.50;2.97;;;33.80;89.80;;;;;;4111026;28;20050;-65
2023/08/27 10:29:30;;;;;;;4.43;2.80;;;33.70;89.10;;;;;;4110822;28;20082;-68
2023/08/27 10:31:32;;;;;;;4.50;3.60;;;33.60;89.10;;;;;;4110998;28;20085;-67